KGAI/GAI METAR and TAF weather

Enter ICAO airport designator
Station Type Date Time Source
KGAI METAR 2022/01/29 01:56 UTC NOAA

KGAI 290156Z AUTO VRB03KT 3SM UP BR SCT008 OVC050 M01/M02 A2997 RMK AO2 UPE14B33SNB14E33 SLP169 P0001 T10111017 FZRANO


Station Type Date Time Source
KGAI Decoded METAR 2022/01/29 01:56 UTC NOAA

Station name not available
Jan 28, 2022 - 08:56 PM EST / 2022.01.29 0156 UTC
Wind: Variable at 3 MPH (3 KT):0
Visibility: 3 mile(s):0
Sky conditions: overcast
Weather: precipitation; mist
Precipitation last hour: 0.01 inches
Temperature: 30.0 F (-1.1 C)
Dew Point: 28.9 F (-1.7 C)
Relative Humidity: 95%
Pressure (altimeter): 29.97 in. Hg (1014 hPa)
ob: KGAI 290156Z AUTO VRB03KT 3SM UP BR SCT008 OVC050 M01/M02 A2997 RMK AO2 UPE14B33SNB14E33 SLP169 P0001 T10111017 FZRANO
cycle: 2

Station Type Date Time Source
KGAI TAF UTC NOAA

Error!

Example: see airport list